createdAt,value
2022-12-01T00:02:12.666Z,45.40
2022-12-01T00:07:14.556Z,45.53
2022-12-01T00:12:16.416Z,45.32
2022-12-01T00:17:18.146Z,45.17
2022-12-01T00:22:20.671Z,45.31
2022-12-01T00:27:22.589Z,45.40
2022-12-01T00:32:24.946Z,45.50
2022-12-01T00:37:26.917Z,45.13
2022-12-01T00:42:29.172Z,45.31
2022-12-01T00:47:31.393Z,45.20
2022-12-01T00:52:33.236Z,45.30
2022-12-01T00:57:35.559Z,45.22
2022-12-01T01:02:39.411Z,45.42
2022-12-01T01:07:41.494Z,45.37
2022-12-01T01:12:43.589Z,45.23
2022-12-01T01:17:45.561Z,45.33
2022-12-01T01:22:47.563Z,45.62
2022-12-01T01:27:49.919Z,45.51
2022-12-01T01:32:51.723Z,45.62
2022-12-01T01:37:53.739Z,45.57
2022-12-01T01:42:56.068Z,45.64
2022-12-01T01:48:00.297Z,45.39
2022-12-01T01:53:05.682Z,45.28
2022-12-01T01:58:10.403Z,45.48
2022-12-01T02:03:15.818Z,45.26
2022-12-01T02:08:18.057Z,45.48
2022-12-01T02:13:44.125Z,45.37
2022-12-01T02:18:52.771Z,45.54
2022-12-01T02:24:12.749Z,45.20
2022-12-01T02:29:27.005Z,45.29
2022-12-01T02:34:45.177Z,45.35
2022-12-01T02:39:58.602Z,45.29
2022-12-01T02:45:06.122Z,45.22
2022-12-01T02:50:10.460Z,45.19
2022-12-01T02:55:13.850Z,45.51
2022-12-01T03:00:17.168Z,45.32
2022-12-01T03:05:29.104Z,45.34
2022-12-01T03:10:45.986Z,45.17
2022-12-01T03:16:15.861Z,45.37
2022-12-01T03:21:33.726Z,45.37
2022-12-01T03:26:37.063Z,45.67
2022-12-01T03:31:53.942Z,45.35
2022-12-01T03:37:01.272Z,45.43
2022-12-01T03:42:13.653Z,45.33
2022-12-01T03:47:21.040Z,45.14
2022-12-01T03:53:00.267Z,45.33
2022-12-01T03:58:09.460Z,45.33
2022-12-01T04:03:18.827Z,45.05
2022-12-01T04:08:20.707Z,45.27
2022-12-01T04:13:23.548Z,45.18
2022-12-01T04:18:25.628Z,45.11
2022-12-01T04:23:46.188Z,45.24
2022-12-01T04:28:49.187Z,45.39
2022-12-01T04:33:51.155Z,45.36
2022-12-01T04:38:53.353Z,45.20
2022-12-01T04:43:56.235Z,45.49
2022-12-01T04:48:58.288Z,45.37
2022-12-01T04:54:02.839Z,45.36
2022-12-01T04:59:04.847Z,45.18
2022-12-01T05:04:06.926Z,45.52
2022-12-01T05:09:16.871Z,45.25
2022-12-01T05:14:19.370Z,45.22
2022-12-01T05:19:39.723Z,45.54
2022-12-01T05:24:41.555Z,45.35
2022-12-01T05:29:43.451Z,45.45
2022-12-01T05:34:45.454Z,45.49
2022-12-01T05:39:48.084Z,45.45
2022-12-01T05:44:50.382Z,45.19
2022-12-01T05:49:52.605Z,45.17
2022-12-01T05:54:54.657Z,45.17
2022-12-01T05:59:56.697Z,45.37
2022-12-01T06:04:58.726Z,45.34
2022-12-01T06:10:00.861Z,45.16
2022-12-01T06:15:02.860Z,45.57
2022-12-01T06:20:05.521Z,45.20
2022-12-01T06:25:08.376Z,45.44
2022-12-01T06:30:10.882Z,45.52
2022-12-01T06:35:13.571Z,45.14
2022-12-01T06:40:15.561Z,45.54
2022-12-01T06:45:17.547Z,45.54
2022-12-01T06:50:20.698Z,45.42
2022-12-01T06:55:22.649Z,45.38
2022-12-01T07:00:24.831Z,45.28
2022-12-01T07:05:27.038Z,45.13
2022-12-01T07:10:29.151Z,45.41
2022-12-01T07:15:31.319Z,45.40
2022-12-01T07:20:33.323Z,45.45
2022-12-01T07:25:35.365Z,45.62
2022-12-01T07:30:37.340Z,45.38
2022-12-01T07:35:39.377Z,46.16
2022-12-01T07:40:41.399Z,45.91
2022-12-01T07:45:43.552Z,45.95
2022-12-01T07:50:45.584Z,45.80
2022-12-01T07:55:53.307Z,45.79
2022-12-01T08:00:55.108Z,45.51
2022-12-01T08:06:01.551Z,45.53
2022-12-01T08:11:06.145Z,45.06
2022-12-01T08:16:10.624Z,44.66
2022-12-01T08:21:15.289Z,45.00
2022-12-01T08:26:19.310Z,44.93
2022-12-01T08:31:33.459Z,44.75
2022-12-01T08:36:36.001Z,44.75
2022-12-01T08:41:37.923Z,44.82
2022-12-01T08:46:40.014Z,44.67
2022-12-01T08:51:42.320Z,44.43
2022-12-01T08:56:45.941Z,44.66
2022-12-01T09:01:53.979Z,44.72
2022-12-01T09:06:57.607Z,44.42
2022-12-01T09:11:59.585Z,44.31
2022-12-01T09:17:01.685Z,44.21
2022-12-01T09:22:03.640Z,44.00
2022-12-01T09:27:05.982Z,44.25
2022-12-01T09:32:08.283Z,43.92
2022-12-01T09:37:10.285Z,44.19
2022-12-01T09:42:16.488Z,43.88
2022-12-01T09:47:31.066Z,44.11
2022-12-01T09:52:43.352Z,44.16
2022-12-01T09:57:49.279Z,43.60
2022-12-01T10:02:51.226Z,43.82
2022-12-01T10:07:59.054Z,43.75
2022-12-01T10:13:01.352Z,43.58
2022-12-01T10:18:12.990Z,43.71
2022-12-01T10:23:52.472Z,43.79
2022-12-01T10:29:33.063Z,43.63
2022-12-01T10:34:38.627Z,43.31
2022-12-01T10:39:44.289Z,43.46
2022-12-01T10:44:46.985Z,43.47
2022-12-01T10:49:49.437Z,43.36
2022-12-01T10:54:51.558Z,43.49
2022-12-01T10:59:58.104Z,43.48
2022-12-01T11:05:04.719Z,43.38
2022-12-01T11:10:15.174Z,43.44
2022-12-01T11:15:27.576Z,43.22
2022-12-01T11:20:36.460Z,43.34
2022-12-01T11:25:38.602Z,42.96
2022-12-01T11:30:40.845Z,42.34
2022-12-01T11:35:48.218Z,41.85
2022-12-01T11:40:54.262Z,42.60
2022-12-01T11:45:58.829Z,42.49
2022-12-01T11:51:05.742Z,42.76
2022-12-01T11:56:19.083Z,42.63
2022-12-01T12:01:39.468Z,42.85
2022-12-01T12:06:44.034Z,42.96
2022-12-01T12:12:20.907Z,42.71
2022-12-01T12:17:47.742Z,42.91
2022-12-01T12:23:07.788Z,43.05
2022-12-01T12:28:34.997Z,43.05
2022-12-01T12:34:33.877Z,42.83
2022-12-01T12:40:07.475Z,43.10
2022-12-01T12:45:36.154Z,42.84
2022-12-01T12:51:05.852Z,43.16
2022-12-01T12:56:14.207Z,43.79
2022-12-01T13:01:21.456Z,43.83
2022-12-01T13:06:28.815Z,43.96
2022-12-01T13:11:36.448Z,44.13
2022-12-01T13:16:43.542Z,44.31
2022-12-01T13:21:48.680Z,44.24
2022-12-01T13:26:56.643Z,43.84
2022-12-01T13:31:58.637Z,43.76
2022-12-01T13:37:00.754Z,42.97
2022-12-01T13:42:07.372Z,42.71
2022-12-01T13:47:12.161Z,42.67
2022-12-01T13:52:22.954Z,42.66
2022-12-01T13:57:27.992Z,42.87
2022-12-01T14:02:38.706Z,42.91
2022-12-01T14:07:40.837Z,43.19
2022-12-01T14:12:46.006Z,43.23
2022-12-01T14:17:48.363Z,43.14
2022-12-01T14:23:36.358Z,43.38
2022-12-01T14:29:23.902Z,43.28
2022-12-01T14:34:29.209Z,43.03
2022-12-01T14:40:04.466Z,43.07
2022-12-01T14:45:11.164Z,42.91
2022-12-01T14:50:25.014Z,42.81
2022-12-01T14:55:33.554Z,42.97
2022-12-01T15:00:38.005Z,42.86
2022-12-01T15:05:42.771Z,42.81
2022-12-01T15:10:54.042Z,42.50
2022-12-01T15:16:13.822Z,43.35
2022-12-01T15:21:21.496Z,43.43
2022-12-01T15:26:26.558Z,45.58
2022-12-01T15:31:28.761Z,45.05
2022-12-01T15:36:30.970Z,44.53
2022-12-01T15:41:35.989Z,44.51
2022-12-01T15:46:37.959Z,44.21
2022-12-01T15:51:39.897Z,43.69
2022-12-01T15:56:41.912Z,43.02
2022-12-01T16:01:45.233Z,43.00
2022-12-01T16:07:05.855Z,43.00
2022-12-01T16:12:16.716Z,42.79
2022-12-01T16:17:18.420Z,42.69
2022-12-01T16:22:22.775Z,42.60
2022-12-01T16:27:32.136Z,42.65
2022-12-01T16:32:38.557Z,42.63
2022-12-01T16:37:40.296Z,42.67
2022-12-01T16:42:42.325Z,42.40
2022-12-01T16:47:46.358Z,42.45
2022-12-01T16:52:48.409Z,42.47
2022-12-01T16:57:50.298Z,42.56
2022-12-01T17:02:53.001Z,42.31
2022-12-01T17:07:55.061Z,42.38
2022-12-01T17:12:57.384Z,42.43
2022-12-01T17:17:59.552Z,42.67
2022-12-01T17:23:01.669Z,42.17
2022-12-01T17:28:03.778Z,42.53
2022-12-01T17:33:05.645Z,42.61
2022-12-01T17:38:07.770Z,42.42
2022-12-01T17:43:09.925Z,42.49
2022-12-01T17:48:11.792Z,42.35
2022-12-01T17:53:13.561Z,42.36
2022-12-01T17:58:18.218Z,42.19
2022-12-01T18:03:21.486Z,42.36
2022-12-01T18:08:25.443Z,42.47
2022-12-01T18:13:27.217Z,42.98
2022-12-01T18:18:29.161Z,42.38
2022-12-01T18:23:31.283Z,42.65
2022-12-01T18:28:34.137Z,42.53
2022-12-01T18:33:38.306Z,42.82
2022-12-01T18:38:41.088Z,42.83
2022-12-01T18:43:43.201Z,42.25
2022-12-01T18:48:46.615Z,42.64
2022-12-01T18:53:48.708Z,42.43
2022-12-01T18:58:58.018Z,42.65
2022-12-01T19:04:00.767Z,42.27
2022-12-01T19:09:05.606Z,42.49
2022-12-01T19:14:08.526Z,42.41
2022-12-01T19:19:10.485Z,42.29
2022-12-01T19:24:12.865Z,42.31
2022-12-01T19:29:14.831Z,42.31
2022-12-01T19:34:16.821Z,42.54
2022-12-01T19:39:18.669Z,42.18
2022-12-01T19:44:20.440Z,42.16
2022-12-01T19:49:22.655Z,42.15
2022-12-01T19:54:24.545Z,42.38
2022-12-01T19:59:26.613Z,42.17
2022-12-01T20:04:28.725Z,42.39
2022-12-01T20:09:30.991Z,42.15
2022-12-01T20:14:33.097Z,42.22
2022-12-01T20:19:35.077Z,42.24
2022-12-01T20:24:39.831Z,42.33
2022-12-01T20:29:41.969Z,42.25
2022-12-01T20:34:43.811Z,42.24
2022-12-01T20:39:45.798Z,41.90
2022-12-01T20:44:49.076Z,42.07
2022-12-01T20:49:55.500Z,42.38
2022-12-01T20:55:00.321Z,42.20
2022-12-01T21:00:02.233Z,42.21
2022-12-01T21:05:04.293Z,41.82
2022-12-01T21:10:06.531Z,41.82
2022-12-01T21:15:29.493Z,42.07
2022-12-01T21:20:36.478Z,42.04
2022-12-01T21:25:40.064Z,41.96
2022-12-01T21:30:42.092Z,41.88
2022-12-01T21:35:44.541Z,41.77
2022-12-01T21:40:47.504Z,42.05
2022-12-01T21:46:13.866Z,42.00
2022-12-01T21:51:23.502Z,41.81
2022-12-01T21:56:28.050Z,42.09
2022-12-01T22:01:31.708Z,41.89
2022-12-01T22:06:40.651Z,42.17
2022-12-01T22:11:45.042Z,41.81
2022-12-01T22:16:53.166Z,42.30
2022-12-01T22:22:16.496Z,41.93
2022-12-01T22:27:39.305Z,42.31
2022-12-01T22:32:49.508Z,42.23
2022-12-01T22:38:11.883Z,42.36
2022-12-01T22:43:16.604Z,42.34
2022-12-01T22:48:27.793Z,42.20
2022-12-01T22:53:31.437Z,42.44
2022-12-01T22:58:41.087Z,42.27
2022-12-01T23:03:43.010Z,42.11
2022-12-01T23:08:44.799Z,42.06
2022-12-01T23:13:46.585Z,42.16
2022-12-01T23:18:48.582Z,42.31
2022-12-01T23:23:50.582Z,42.32
2022-12-01T23:28:52.911Z,41.99
2022-12-01T23:33:54.844Z,42.20
2022-12-01T23:39:01.720Z,42.16
2022-12-01T23:44:23.853Z,42.09
2022-12-01T23:49:33.395Z,42.31
2022-12-01T23:54:38.229Z,42.30
2022-12-01T23:59:40.406Z,42.32
